createdAt,value
2019-02-28T00:00:37.224Z,57.84
2019-02-28T00:03:01.992Z,58.60
2019-02-28T00:05:29.382Z,58.71
2019-02-28T00:07:56.796Z,58.54
2019-02-28T00:10:24.188Z,58.68
2019-02-28T00:12:51.600Z,58.83
2019-02-28T00:15:19.000Z,59.22
2019-02-28T00:17:46.529Z,59.30
2019-02-28T00:20:13.918Z,59.48
2019-02-28T00:22:41.369Z,59.71
2019-02-28T00:25:08.758Z,59.40
2019-02-28T00:27:36.668Z,59.52
2019-02-28T00:30:05.995Z,59.37
2019-02-28T00:32:31.492Z,59.09
2019-02-28T00:34:58.894Z,59.38
2019-02-28T00:37:26.307Z,58.92
2019-02-28T00:39:54.244Z,58.60
2019-02-28T00:42:21.639Z,59.14
2019-02-28T00:44:49.046Z,59.78
2019-02-28T00:47:17.110Z,59.74
2019-02-28T00:49:43.865Z,59.40
2019-02-28T00:52:11.266Z,59.59
2019-02-28T00:54:42.984Z,59.27
2019-02-28T00:57:06.164Z,59.08
2019-02-28T00:59:33.620Z,58.65
2019-02-28T01:02:01.037Z,58.53
2019-02-28T01:04:30.032Z,58.98
2019-02-28T01:06:55.925Z,59.75
2019-02-28T01:09:23.352Z,60.65
2019-02-28T01:11:50.744Z,61.09
2019-02-28T01:14:18.152Z,61.43
2019-02-28T01:16:45.586Z,61.32
2019-02-28T01:19:13.151Z,61.14
2019-02-28T01:21:41.450Z,61.21
2019-02-28T01:24:08.924Z,61.24
2019-02-28T01:26:36.377Z,61.16
2019-02-28T01:29:03.807Z,60.91
2019-02-28T01:31:31.282Z,60.91
2019-02-28T01:33:58.893Z,60.87
2019-02-28T01:36:26.206Z,60.90
2019-02-28T01:38:57.781Z,60.84
2019-02-28T01:41:21.026Z,61.14
2019-02-28T01:43:48.451Z,61.49
2019-02-28T01:46:17.197Z,61.54
2019-02-28T01:48:43.480Z,61.46
2019-02-28T01:51:10.970Z,61.54
2019-02-28T01:53:38.390Z,60.76
2019-02-28T01:56:05.852Z,60.54
2019-02-28T01:58:33.311Z,59.90
2019-02-28T02:01:00.705Z,59.38
2019-02-28T02:03:28.107Z,59.58
2019-02-28T02:05:55.516Z,59.30
2019-02-28T02:08:22.909Z,59.15
2019-02-28T02:10:54.973Z,59.27
2019-02-28T02:13:17.744Z,59.30
2019-02-28T02:15:45.179Z,59.79
2019-02-28T02:18:12.653Z,60.85
2019-02-28T02:20:40.049Z,61.58
2019-02-28T02:23:07.487Z,61.92
2019-02-28T02:25:37.609Z,62.26
2019-02-28T02:28:02.388Z,62.37
2019-02-28T02:30:29.788Z,62.34
2019-02-28T02:32:57.201Z,62.43
2019-02-28T02:35:24.615Z,62.28
2019-02-28T02:37:52.015Z,62.14
2019-02-28T02:40:23.120Z,62.25
2019-02-28T02:42:48.631Z,62.28
2019-02-28T02:45:14.273Z,61.96
2019-02-28T02:47:41.694Z,61.78
2019-02-28T02:50:09.094Z,62.00
2019-02-28T02:52:36.666Z,62.60
2019-02-28T02:55:04.081Z,63.10
2019-02-28T02:57:31.487Z,63.09
2019-02-28T02:59:58.895Z,63.28
2019-02-28T03:02:28.765Z,63.64
2019-02-28T03:04:57.998Z,64.21
2019-02-28T03:07:24.576Z,64.55
2019-02-28T03:09:48.564Z,64.71
2019-02-28T03:12:15.964Z,64.77
2019-02-28T03:14:43.379Z,64.62
2019-02-28T03:17:12.161Z,64.50
2019-02-28T03:19:38.217Z,64.51
2019-02-28T03:22:05.631Z,64.45
2019-02-28T03:24:33.104Z,64.31
2019-02-28T03:27:00.976Z,63.77
2019-02-28T03:29:28.412Z,63.56
2019-02-28T03:31:59.123Z,63.87
2019-02-28T03:34:23.333Z,64.42
2019-02-28T03:36:55.370Z,64.54
2019-02-28T03:39:24.158Z,64.58
2019-02-28T03:41:49.158Z,64.59
2019-02-28T03:44:19.789Z,64.60
2019-02-28T03:46:46.454Z,64.47
2019-02-28T03:49:11.469Z,64.23
2019-02-28T03:51:35.416Z,64.46
2019-02-28T03:54:02.835Z,64.23
2019-02-28T03:56:30.252Z,64.35
2019-02-28T03:58:57.635Z,64.12
2019-02-28T04:01:25.108Z,63.81
2019-02-28T04:03:52.602Z,63.77
2019-02-28T04:06:20.003Z,63.75
2019-02-28T04:08:47.408Z,64.32
2019-02-28T04:11:14.910Z,64.59
2019-02-28T04:13:42.319Z,64.87
2019-02-28T04:16:10.081Z,65.07
2019-02-28T04:18:44.218Z,65.17
2019-02-28T04:21:04.563Z,65.17
2019-02-28T04:23:36.193Z,64.71
2019-02-28T04:26:00.302Z,64.45
2019-02-28T04:28:27.692Z,64.79
2019-02-28T04:30:55.357Z,65.05
2019-02-28T04:33:22.936Z,65.25
2019-02-28T04:35:50.381Z,65.73
2019-02-28T04:38:20.510Z,65.66
2019-02-28T04:40:45.304Z,65.39
2019-02-28T04:43:12.749Z,65.35
2019-02-28T04:45:40.141Z,65.61
2019-02-28T04:48:07.664Z,66.12
2019-02-28T04:50:35.113Z,66.25
2019-02-28T04:53:02.572Z,65.98
2019-02-28T04:55:30.711Z,65.60
2019-02-28T04:57:57.507Z,65.60
2019-02-28T05:00:24.910Z,65.68
2019-02-28T05:02:54.860Z,65.29
2019-02-28T05:05:19.758Z,64.66
2019-02-28T05:07:47.146Z,64.47
2019-02-28T05:10:14.543Z,64.00
2019-02-28T05:12:41.951Z,63.50
2019-02-28T05:15:12.329Z,63.35
2019-02-28T05:17:39.728Z,63.55
2019-02-28T05:20:07.344Z,63.27
2019-02-28T05:22:34.628Z,63.13
2019-02-28T05:25:02.033Z,63.25
2019-02-28T05:27:34.933Z,63.33
2019-02-28T05:29:56.897Z,63.17
2019-02-28T05:32:24.321Z,63.24
2019-02-28T05:34:51.863Z,63.52
2019-02-28T05:37:19.272Z,64.00
2019-02-28T05:39:46.699Z,64.48
2019-02-28T05:42:14.161Z,64.68
2019-02-28T05:44:41.566Z,64.67
2019-02-28T05:47:08.954Z,65.15
2019-02-28T05:49:36.354Z,65.68
2019-02-28T05:52:03.807Z,65.60
2019-02-28T05:54:31.224Z,65.62
2019-02-28T05:56:58.631Z,65.60
2019-02-28T05:59:27.404Z,65.37
2019-02-28T06:01:53.473Z,65.16
2019-02-28T06:04:20.889Z,64.99
2019-02-28T06:06:51.251Z,65.44
2019-02-28T06:09:15.967Z,65.94
2019-02-28T06:11:43.946Z,65.87
2019-02-28T06:14:10.863Z,65.91
2019-02-28T06:16:38.273Z,65.98
2019-02-28T06:19:08.345Z,65.41
2019-02-28T06:21:33.133Z,64.83
2019-02-28T06:24:00.587Z,64.27
2019-02-28T06:26:28.067Z,64.01
2019-02-28T06:28:55.472Z,63.71
2019-02-28T06:31:22.876Z,63.40
2019-02-28T06:33:50.362Z,63.47
2019-02-28T06:36:17.859Z,63.40
2019-02-28T06:38:45.278Z,63.20
2019-02-28T06:41:12.756Z,63.13
2019-02-28T06:43:40.161Z,62.97
2019-02-28T06:46:08.758Z,62.92
2019-02-28T06:48:35.951Z,62.38
2019-02-28T06:51:03.371Z,62.45
2019-02-28T06:53:33.678Z,62.14
2019-02-28T06:55:58.182Z,61.70
2019-02-28T06:58:25.596Z,60.91
2019-02-28T07:00:53.006Z,60.48
2019-02-28T07:03:20.421Z,60.28
2019-02-28T07:05:47.848Z,60.66
2019-02-28T07:08:15.262Z,60.41
2019-02-28T07:10:44.934Z,60.09
2019-02-28T07:13:11.848Z,59.64
2019-02-28T07:15:37.642Z,59.61
2019-02-28T07:18:05.175Z,60.04
2019-02-28T07:20:35.023Z,59.86
2019-02-28T07:23:00.021Z,59.79
2019-02-28T07:25:27.594Z,59.65
2019-02-28T07:27:55.239Z,59.08
2019-02-28T07:30:22.761Z,58.12
2019-02-28T07:32:50.357Z,57.05
2019-02-28T07:35:17.790Z,56.62
2019-02-28T07:37:45.218Z,56.58
2019-02-28T07:40:15.519Z,55.99
2019-02-28T07:42:40.079Z,55.11
2019-02-28T07:45:07.518Z,54.42
2019-02-28T07:47:34.970Z,54.22
2019-02-28T07:50:02.391Z,53.54
2019-02-28T07:52:33.536Z,52.27
2019-02-28T07:54:57.216Z,51.50
2019-02-28T07:57:24.674Z,50.89
2019-02-28T07:59:52.116Z,50.26
2019-02-28T08:02:19.586Z,50.07
2019-02-28T08:04:50.663Z,49.43
2019-02-28T08:07:15.777Z,49.21
2019-02-28T08:09:42.980Z,49.02
2019-02-28T08:12:09.914Z,48.93
2019-02-28T08:14:36.857Z,48.69
2019-02-28T08:17:05.417Z,48.77
2019-02-28T08:19:31.886Z,48.23
2019-02-28T08:22:00.220Z,47.63
2019-02-28T08:24:27.645Z,47.13
2019-02-28T08:26:55.051Z,47.31
2019-02-28T08:29:22.469Z,47.04
2019-02-28T08:31:49.890Z,46.75
2019-02-28T08:34:16.864Z,46.42
2019-02-28T08:36:46.758Z,45.97
2019-02-28T08:39:13.399Z,45.65
2019-02-28T08:41:40.346Z,45.79
2019-02-28T08:44:07.313Z,46.15
2019-02-28T08:46:34.506Z,46.11
2019-02-28T08:49:06.308Z,45.86
2019-02-28T08:51:31.028Z,45.89
2019-02-28T08:53:55.854Z,46.09
2019-02-28T08:56:22.856Z,45.90
2019-02-28T08:58:49.846Z,45.02
2019-02-28T09:01:17.256Z,44.34
2019-02-28T09:03:44.667Z,44.16
2019-02-28T09:06:12.076Z,44.14
2019-02-28T09:08:39.568Z,43.70
2019-02-28T09:11:06.543Z,43.44
2019-02-28T09:13:34.079Z,43.51
2019-02-28T09:16:01.891Z,43.65
2019-02-28T09:18:28.963Z,43.00
2019-02-28T09:20:56.543Z,42.39
2019-02-28T09:23:24.128Z,42.12
2019-02-28T09:25:53.387Z,41.64
2019-02-28T09:28:18.655Z,41.00
2019-02-28T09:30:47.779Z,40.42
2019-02-28T09:33:15.258Z,39.92
2019-02-28T09:35:46.249Z,39.72
2019-02-28T09:38:13.421Z,39.29
2019-02-28T09:40:37.536Z,39.05
2019-02-28T09:43:04.966Z,39.10
2019-02-28T09:45:32.406Z,38.97
2019-02-28T09:48:02.001Z,39.02
2019-02-28T09:50:27.375Z,38.96
2019-02-28T09:52:54.775Z,38.05
2019-02-28T09:55:22.240Z,37.30
2019-02-28T09:57:53.710Z,37.10
2019-02-28T10:00:20.582Z,36.93
2019-02-28T10:02:48.002Z,36.60
2019-02-28T10:05:15.417Z,36.40
2019-02-28T10:07:42.855Z,36.17
2019-02-28T10:10:14.037Z,35.97
2019-02-28T10:12:43.060Z,35.85
2019-02-28T10:15:11.568Z,35.22
2019-02-28T10:17:39.030Z,35.16
2019-02-28T10:20:09.156Z,34.96
2019-02-28T10:22:36.608Z,34.36
2019-02-28T10:25:06.531Z,34.10
2019-02-28T10:27:31.431Z,34.26
2019-02-28T10:29:58.864Z,34.09
2019-02-28T10:32:26.334Z,33.76
2019-02-28T10:34:53.755Z,33.99
2019-02-28T10:37:22.766Z,34.08
2019-02-28T10:39:49.026Z,34.14
2019-02-28T10:42:16.430Z,34.47
2019-02-28T10:44:43.855Z,33.82
2019-02-28T10:47:10.838Z,33.41
2019-02-28T10:49:37.802Z,33.35
2019-02-28T10:52:04.783Z,32.76
2019-02-28T10:54:32.184Z,31.95
2019-02-28T10:56:59.138Z,31.14
2019-02-28T10:59:26.107Z,29.54
2019-02-28T11:01:53.543Z,28.38
2019-02-28T11:04:21.015Z,27.36
2019-02-28T11:06:48.453Z,26.89
2019-02-28T11:09:18.329Z,25.83
2019-02-28T11:11:45.619Z,25.24
2019-02-28T11:14:10.891Z,25.02
2019-02-28T11:16:38.528Z,24.69
2019-02-28T11:19:06.068Z,24.58
2019-02-28T11:21:33.518Z,24.35
2019-02-28T11:24:01.044Z,24.27
2019-02-28T11:26:28.609Z,24.24
2019-02-28T11:28:55.546Z,23.54
2019-02-28T11:31:22.589Z,23.41
2019-02-28T11:33:49.741Z,23.76
2019-02-28T11:36:16.732Z,23.31
2019-02-28T11:38:43.674Z,22.97
2019-02-28T11:41:11.095Z,22.38
2019-02-28T11:43:38.668Z,22.20
2019-02-28T11:46:05.957Z,21.64
2019-02-28T11:48:33.384Z,21.55
2019-02-28T11:51:00.803Z,21.01
2019-02-28T11:53:28.297Z,20.64
2019-02-28T11:55:55.720Z,20.44
2019-02-28T11:58:23.147Z,20.24
2019-02-28T12:00:50.706Z,20.71
2019-02-28T12:03:18.114Z,20.63
2019-02-28T12:05:50.139Z,20.21
2019-02-28T12:08:12.949Z,19.92
2019-02-28T12:10:40.545Z,20.01
2019-02-28T12:13:07.992Z,19.37
2019-02-28T12:15:39.167Z,19.27
2019-02-28T12:18:05.794Z,18.98
2019-02-28T12:20:33.237Z,18.83
2019-02-28T12:23:00.695Z,18.43
2019-02-28T12:25:28.119Z,18.49
2019-02-28T12:27:55.607Z,18.46
2019-02-28T12:30:26.852Z,18.29
2019-02-28T12:32:54.263Z,17.93
2019-02-28T12:35:21.776Z,17.48
2019-02-28T12:37:49.327Z,17.49
2019-02-28T12:40:17.439Z,17.10
2019-02-28T12:42:45.073Z,16.77
2019-02-28T12:45:32.265Z,16.68
2019-02-28T12:47:59.756Z,16.85
2019-02-28T12:50:29.451Z,16.70
2019-02-28T12:52:53.927Z,16.83
2019-02-28T12:55:20.888Z,16.67
2019-02-28T12:57:47.863Z,16.39
2019-02-28T13:00:15.633Z,16.25
2019-02-28T13:02:43.525Z,16.96
2019-02-28T13:05:14.818Z,17.26
2019-02-28T13:07:36.538Z,17.07
2019-02-28T13:10:04.090Z,16.71
2019-02-28T13:12:30.640Z,17.07
2019-02-28T13:14:57.738Z,17.08
2019-02-28T13:17:24.661Z,16.73
2019-02-28T13:19:53.204Z,16.41
2019-02-28T13:22:18.866Z,15.58
2019-02-28T13:24:47.566Z,15.24
2019-02-28T13:27:13.550Z,15.02
2019-02-28T13:29:40.974Z,14.80
2019-02-28T13:32:08.617Z,15.20
2019-02-28T13:34:36.039Z,14.92
2019-02-28T13:37:03.501Z,15.51
2019-02-28T13:39:31.594Z,15.76
2019-02-28T13:41:58.705Z,15.67
2019-02-28T13:44:25.757Z,15.50
2019-02-28T13:46:53.168Z,15.07
2019-02-28T13:49:20.556Z,15.10
2019-02-28T13:51:47.966Z,15.18
2019-02-28T13:54:15.369Z,15.70
2019-02-28T13:56:42.775Z,15.96
2019-02-28T13:59:10.338Z,15.40
2019-02-28T14:01:37.757Z,14.98
2019-02-28T14:04:05.177Z,14.79
2019-02-28T14:06:32.617Z,14.50
2019-02-28T14:09:00.011Z,14.11
2019-02-28T14:11:27.461Z,14.44
2019-02-28T14:13:54.871Z,14.35
2019-02-28T14:16:26.362Z,14.35
2019-02-28T14:18:49.793Z,14.27
2019-02-28T14:21:17.895Z,13.62
2019-02-28T14:23:45.289Z,13.68
2019-02-28T14:26:14.051Z,13.84
2019-02-28T14:28:40.921Z,13.72
2019-02-28T14:31:08.357Z,13.45
2019-02-28T14:33:35.756Z,12.99
2019-02-28T14:36:03.195Z,12.78
2019-02-28T14:38:32.826Z,12.61
2019-02-28T14:40:59.401Z,12.42
2019-02-28T14:43:25.503Z,12.58
2019-02-28T14:45:53.084Z,12.37
2019-02-28T14:48:20.492Z,12.25
2019-02-28T14:50:50.734Z,11.98
2019-02-28T14:53:15.378Z,11.68
2019-02-28T14:55:42.775Z,11.63
2019-02-28T14:58:10.330Z,11.74
2019-02-28T15:00:38.987Z,11.62
2019-02-28T15:03:05.290Z,11.51
2019-02-28T15:05:34.503Z,11.22
2019-02-28T15:08:01.884Z,10.86
2019-02-28T15:10:29.306Z,10.68
2019-02-28T15:12:58.661Z,10.48
2019-02-28T15:15:24.476Z,10.62
2019-02-28T15:17:51.877Z,10.87
2019-02-28T15:20:19.305Z,10.66
2019-02-28T15:22:46.793Z,11.08
2019-02-28T15:25:19.409Z,11.64
2019-02-28T15:27:46.054Z,11.78
2019-02-28T15:30:16.258Z,11.18
2019-02-28T15:32:43.683Z,11.13
2019-02-28T15:35:12.514Z,11.46
2019-02-28T15:37:38.530Z,11.90
2019-02-28T15:40:08.667Z,11.91
2019-02-28T15:42:36.099Z,12.04
2019-02-28T15:45:04.120Z,12.93
2019-02-28T15:47:31.089Z,13.44
2019-02-28T15:49:58.504Z,13.43
2019-02-28T15:52:25.963Z,13.83
2019-02-28T15:54:56.520Z,14.01
2019-02-28T15:57:20.988Z,13.92
2019-02-28T15:59:49.738Z,13.68
2019-02-28T16:02:15.906Z,13.90
2019-02-28T16:04:43.306Z,14.12
2019-02-28T16:07:10.762Z,13.87
2019-02-28T16:09:38.208Z,13.81
2019-02-28T16:12:05.625Z,13.63
2019-02-28T16:14:34.691Z,13.36
2019-02-28T16:17:03.375Z,13.02
2019-02-28T16:19:28.032Z,13.29
2019-02-28T16:21:55.626Z,13.66
2019-02-28T16:24:23.463Z,13.68
2019-02-28T16:26:53.526Z,13.40
2019-02-28T16:29:20.652Z,13.24
2019-02-28T16:31:45.750Z,13.42
2019-02-28T16:34:13.186Z,14.41
2019-02-28T16:36:40.646Z,14.77
2019-02-28T16:39:08.057Z,14.89
2019-02-28T16:41:36.850Z,15.45
2019-02-28T16:44:02.688Z,16.57
2019-02-28T16:46:30.268Z,17.82
2019-02-28T16:48:57.523Z,18.58
2019-02-28T16:51:26.304Z,19.32
2019-02-28T16:53:53.194Z,22.77
2019-02-28T16:56:19.813Z,22.94
2019-02-28T16:58:47.243Z,24.28
2019-02-28T17:01:17.456Z,26.64
2019-02-28T17:03:42.817Z,28.31
2019-02-28T17:06:09.491Z,29.78
2019-02-28T17:08:36.911Z,30.77
2019-02-28T17:11:04.325Z,31.33
2019-02-28T17:13:32.016Z,31.61
2019-02-28T17:16:02.374Z,31.77
2019-02-28T17:18:28.635Z,31.74
2019-02-28T17:20:56.218Z,31.84
2019-02-28T17:23:23.616Z,32.14
2019-02-28T17:25:53.572Z,32.22
2019-02-28T17:28:24.430Z,32.31
2019-02-28T17:30:57.368Z,32.82
2019-02-28T17:33:24.785Z,33.21
2019-02-28T17:35:52.219Z,33.86
2019-02-28T17:38:19.676Z,34.27
2019-02-28T17:40:47.121Z,34.97
2019-02-28T17:43:14.579Z,35.53
2019-02-28T17:45:41.971Z,36.05
2019-02-28T17:48:12.728Z,36.87
2019-02-28T17:50:42.834Z,37.74
2019-02-28T17:53:11.490Z,38.26
2019-02-28T17:55:45.663Z,39.00
2019-02-28T17:58:14.043Z,39.52
2019-02-28T18:00:42.240Z,39.99
2019-02-28T18:06:29.363Z,41.56
2019-02-28T18:09:12.691Z,41.38
2019-02-28T18:14:57.004Z,42.56
2019-02-28T18:17:34.270Z,42.51
2019-02-28T18:20:39.284Z,42.80
2019-02-28T18:23:24.883Z,43.17
2019-02-28T18:28:54.836Z,43.64
2019-02-28T18:31:22.216Z,43.35
2019-02-28T18:33:48.858Z,43.32
2019-02-28T18:36:16.453Z,43.58
2019-02-28T18:38:44.061Z,43.93
2019-02-28T18:41:11.441Z,43.75
2019-02-28T18:43:40.427Z,43.77
2019-02-28T18:46:06.301Z,43.63
2019-02-28T18:48:33.762Z,43.48
2019-02-28T18:51:01.157Z,43.51
2019-02-28T18:53:28.607Z,43.61
2019-02-28T18:55:56.003Z,43.79
2019-02-28T18:58:23.429Z,43.74
2019-02-28T19:00:51.215Z,43.72
2019-02-28T19:03:18.604Z,43.88
2019-02-28T19:05:45.996Z,43.99
2019-02-28T19:08:13.416Z,44.09
2019-02-28T19:10:41.021Z,44.20
2019-02-28T19:13:08.662Z,44.29
2019-02-28T19:15:36.086Z,44.52
2019-02-28T19:18:03.544Z,44.56
2019-02-28T19:20:30.953Z,44.67
2019-02-28T19:22:58.555Z,44.85
2019-02-28T19:25:26.061Z,45.11
2019-02-28T19:27:53.463Z,45.16
2019-02-28T19:30:20.894Z,45.29
2019-02-28T19:32:48.294Z,45.42
2019-02-28T19:35:15.713Z,45.74
2019-02-28T19:37:43.141Z,45.66
2019-02-28T19:40:11.324Z,45.72
2019-02-28T19:42:38.743Z,45.74
2019-02-28T19:45:09.981Z,45.68
2019-02-28T19:47:37.364Z,45.76
2019-02-28T19:50:04.777Z,45.74
2019-02-28T19:52:32.211Z,46.12
2019-02-28T19:54:59.648Z,46.01
2019-02-28T19:57:27.050Z,45.86
2019-02-28T19:59:54.483Z,45.84
2019-02-28T20:02:21.970Z,45.88
2019-02-28T20:04:49.374Z,45.84
2019-02-28T20:07:16.806Z,45.74
2019-02-28T20:09:44.284Z,45.65
2019-02-28T20:12:11.815Z,46.02
2019-02-28T20:14:39.206Z,46.39
2019-02-28T20:17:06.617Z,46.45
2019-02-28T20:19:34.148Z,46.54
2019-02-28T20:22:01.578Z,46.45
2019-02-28T20:24:29.022Z,46.12
2019-02-28T20:26:56.417Z,46.08
2019-02-28T20:31:57.619Z,45.94
2019-02-28T20:34:25.143Z,46.01
2019-02-28T20:36:52.619Z,46.02
2019-02-28T20:39:20.095Z,46.07
2019-02-28T20:41:47.543Z,46.10
2019-02-28T20:44:14.934Z,46.36
2019-02-28T20:46:42.387Z,46.34
2019-02-28T20:49:09.855Z,46.73
2019-02-28T20:51:37.353Z,46.60
2019-02-28T20:54:04.874Z,46.45
2019-02-28T20:56:32.378Z,46.51
2019-02-28T20:58:59.978Z,46.50
2019-02-28T21:01:27.370Z,46.58
2019-02-28T21:03:56.630Z,46.76
2019-02-28T21:06:24.121Z,46.94
2019-02-28T21:08:51.047Z,46.90
2019-02-28T21:11:18.716Z,46.83
2019-02-28T21:13:46.146Z,46.98
2019-02-28T21:16:13.551Z,46.83
2019-02-28T21:18:40.984Z,46.73
2019-02-28T21:21:08.432Z,46.85
2019-02-28T21:23:35.935Z,46.87
2019-02-28T21:26:03.330Z,46.66
2019-02-28T21:28:30.772Z,46.57
2019-02-28T21:30:58.174Z,46.50
2019-02-28T21:33:25.789Z,46.52
2019-02-28T21:35:53.198Z,46.46
2019-02-28T21:38:20.631Z,46.37
2019-02-28T21:40:48.023Z,46.39
2019-02-28T21:43:15.424Z,46.35
2019-02-28T21:45:42.843Z,46.34
2019-02-28T21:48:10.597Z,46.27
2019-02-28T21:50:38.023Z,46.30
2019-02-28T21:53:05.411Z,46.25
2019-02-28T21:55:32.851Z,46.41
2019-02-28T21:58:00.282Z,46.54
2019-02-28T22:00:27.680Z,46.39
2019-02-28T22:02:55.086Z,46.37
2019-02-28T22:05:22.566Z,46.25
2019-02-28T22:07:49.963Z,46.22
2019-02-28T22:10:17.477Z,46.25
2019-02-28T22:12:44.982Z,46.33
2019-02-28T22:15:13.977Z,46.46
2019-02-28T22:17:41.634Z,46.55
2019-02-28T22:20:09.145Z,46.63
2019-02-28T22:22:37.632Z,46.81
2019-02-28T22:25:05.091Z,46.94
2019-02-28T22:27:32.720Z,47.15
2019-02-28T22:30:01.654Z,47.25
2019-02-28T22:32:29.309Z,47.33
2019-02-28T22:34:56.991Z,47.52
2019-02-28T22:37:24.546Z,47.65
2019-02-28T22:39:52.967Z,47.82
2019-02-28T22:42:22.421Z,47.93
2019-02-28T22:44:48.142Z,48.21
2019-02-28T22:47:16.326Z,48.44
2019-02-28T22:49:43.864Z,48.63
2019-02-28T22:52:11.358Z,48.61
2019-02-28T22:54:38.803Z,48.59
2019-02-28T22:57:07.932Z,48.46
2019-02-28T22:59:35.473Z,48.44
2019-02-28T23:02:03.084Z,48.43
2019-02-28T23:04:30.624Z,48.32
2019-02-28T23:06:58.027Z,48.29
2019-02-28T23:09:25.578Z,48.34
2019-02-28T23:11:54.023Z,48.22
2019-02-28T23:14:21.603Z,48.30
2019-02-28T23:16:48.997Z,48.17
2019-02-28T23:19:16.403Z,48.19
2019-02-28T23:21:43.845Z,48.39
2019-02-28T23:24:11.254Z,48.27
2019-02-28T23:26:50.434Z,48.07
2019-02-28T23:29:18.028Z,47.99
2019-02-28T23:34:40.106Z,48.18
2019-02-28T23:37:07.532Z,48.03
2019-02-28T23:39:35.121Z,47.99
2019-02-28T23:42:02.552Z,48.13
2019-02-28T23:44:29.936Z,48.29
2019-02-28T23:46:57.335Z,48.33
2019-02-28T23:49:25.127Z,48.47
2019-02-28T23:51:52.532Z,48.49
2019-02-28T23:54:19.935Z,48.53
2019-02-28T23:56:47.347Z,48.62
2019-02-28T23:59:14.776Z,48.85
